Time;durP1;ratioP1;P1;durP2;ratioP2;P2;SDS_P1;SDS_P2;PMS_P1;PMS_P2;Temp;Humidity;BMP_temperature;BMP_pressure;BME280_temperature;BME280_humidity;BME280_pressure;Samples;Min_cycle;Max_cycle;Signal;HPM_P1;HPM_P2
2022/06/20 00:02:36;;;;;;;5.45;1.67;;;14.60;99.90;;;;;;6180143;23;20100;-81
2022/06/20 00:05:03;;;;;;;7.65;2.20;;;14.60;99.90;;;;;;6150294;23;20330;-81
2022/06/20 00:07:32;;;;;;;8.82;2.03;;;14.60;99.90;;;;;;6179379;23;20133;-81
2022/06/20 00:09:57;;;;;;;8.55;1.63;;;14.60;99.90;;;;;;6181376;23;20017;-81
2022/06/20 00:12:25;;;;;;;6.40;1.77;;;14.60;99.90;;;;;;6154574;23;20005;-82
2022/06/20 00:14:55;;;;;;;5.90;1.30;;;14.60;99.90;;;;;;6182266;23;20039;-81
2022/06/20 00:17:21;;;;;;;5.25;1.45;;;14.60;99.90;;;;;;6181748;23;20076;-82
2022/06/20 00:19:47;;;;;;;12.20;1.88;;;14.60;99.90;;;;;;6154900;23;20398;-81
2022/06/20 00:22:15;;;;;;;8.40;1.92;;;14.60;99.90;;;;;;6154049;23;20117;-81
2022/06/20 00:24:41;;;;;;;8.15;1.70;;;14.60;99.90;;;;;;6181135;23;20045;-81
2022/06/20 00:27:07;;;;;;;9.93;1.60;;;14.50;99.90;;;;;;6178904;23;20013;-82
2022/06/20 00:29:34;;;;;;;4.35;1.33;;;14.50;99.90;;;;;;6155457;23;20135;-81
2022/06/20 00:32:00;;;;;;;10.45;1.88;;;14.50;99.90;;;;;;6155216;23;20048;-81
2022/06/20 00:34:26;;;;;;;6.13;1.73;;;14.40;99.90;;;;;;6181727;23;20096;-81
2022/06/20 00:36:51;;;;;;;6.90;1.90;;;14.50;99.90;;;;;;6153902;23;20713;-82
2022/06/20 00:39:20;;;;;;;5.50;1.73;;;14.40;99.90;;;;;;6154308;23;20028;-81
2022/06/20 00:41:50;;;;;;;6.82;1.70;;;14.40;99.90;;;;;;6179326;23;20021;-81
2022/06/20 00:44:27;;;;;;;7.95;1.50;;;14.50;99.90;;;;;;6154880;23;20473;-81
2022/06/20 00:46:59;;;;;;;7.40;1.63;;;14.40;99.90;;;;;;6180603;23;20085;-82
2022/06/20 00:49:33;;;;;;;6.55;2.10;;;14.40;99.90;;;;;;6181992;23;20053;-81
2022/06/20 00:52:10;;;;;;;8.50;1.80;;;14.40;99.90;;;;;;6179487;23;20385;-81
2022/06/20 00:54:47;;;;;;;8.85;2.13;;;14.40;99.90;;;;;;6153313;23;20017;-81
2022/06/20 00:57:25;;;;;;;10.52;1.63;;;14.30;99.90;;;;;;6153774;23;20033;-80
2022/06/20 00:59:58;;;;;;;7.75;1.45;;;14.50;99.90;;;;;;6154257;23;20047;-82
2022/06/20 01:02:27;;;;;;;5.28;1.65;;;14.30;99.90;;;;;;6153530;23;20044;-81
2022/06/20 01:05:20;;;;;;;9.07;2.00;;;14.30;99.90;;;;;;6180122;23;20017;-82
2022/06/20 01:08:17;;;;;;;6.38;1.83;;;14.30;99.90;;;;;;6159385;23;20489;-81
2022/06/20 01:10:50;;;;;;;5.32;1.63;;;14.30;99.90;;;;;;6126359;23;20017;-81
2022/06/20 01:13:19;;;;;;;7.90;1.42;;;14.30;99.90;;;;;;6153099;23;20056;-81
2022/06/20 01:15:57;;;;;;;10.20;1.60;;;14.20;99.90;;;;;;6153294;23;20072;-82
2022/06/20 01:18:28;;;;;;;7.55;1.42;;;14.20;99.90;;;;;;6179414;23;20024;-81
2022/06/20 01:20:56;;;;;;;6.15;1.20;;;14.20;99.90;;;;;;6181035;23;20092;-81
2022/06/20 01:23:34;;;;;;;9.07;2.03;;;14.10;99.90;;;;;;6177916;23;20028;-82
2022/06/20 01:26:24;;;;;;;6.68;1.67;;;14.10;99.90;;;;;;6152293;23;20088;-81
2022/06/20 01:28:54;;;;;;;6.13;1.52;;;14.10;99.90;;;;;;6178396;23;20017;-82
2022/06/20 01:31:24;;;;;;;5.60;1.23;;;14.00;99.90;;;;;;6153469;23;20025;-81
2022/06/20 01:33:50;;;;;;;9.52;1.55;;;14.00;99.90;;;;;;6179552;23;20130;-81
2022/06/20 01:39:02;;;;;;;9.68;1.52;;;13.90;99.90;;;;;;6179323;23;20092;-81
2022/06/20 01:44:14;;;;;;;9.02;1.80;;;13.90;99.90;;;;;;6178887;23;20025;-81
2022/06/20 01:46:40;;;;;;;5.05;1.30;;;13.80;99.90;;;;;;6177584;23;20095;-80
2022/06/20 01:49:13;;;;;;;5.07;1.30;;;13.80;99.90;;;;;;6155197;23;20013;-80
2022/06/20 01:51:47;;;;;;;8.18;1.90;;;13.70;99.90;;;;;;6151274;23;20024;-80
2022/06/20 01:54:23;;;;;;;8.20;1.65;;;13.70;99.90;;;;;;6154368;23;20395;-80
2022/06/20 01:56:51;;;;;;;9.93;1.50;;;14.00;99.90;;;;;;6152319;23;20437;-80
2022/06/20 01:59:34;;;;;;;7.50;1.52;;;13.60;99.90;;;;;;6153076;23;20013;-79
2022/06/20 02:02:00;;;;;;;6.32;1.33;;;13.60;99.90;;;;;;6180330;23;20105;-80
2022/06/20 02:04:30;;;;;;;7.18;1.48;;;13.60;99.90;;;;;;6152728;23;20518;-80
2022/06/20 02:06:56;;;;;;;7.67;1.70;;;13.50;99.90;;;;;;6178510;23;20017;-79
2022/06/20 02:09:22;;;;;;;12.27;1.60;;;13.50;99.90;;;;;;6154816;23;20542;-79
2022/06/20 02:11:48;;;;;;;5.68;1.20;;;13.50;99.90;;;;;;6151837;23;20417;-81
2022/06/20 02:14:25;;;;;;;7.30;1.58;;;13.50;99.90;;;;;;6180214;23;20013;-80
2022/06/20 02:17:02;;;;;;;3.97;1.25;;;13.50;99.90;;;;;;6180187;23;20021;-80
2022/06/20 02:19:33;;;;;;;6.03;1.35;;;13.50;99.90;;;;;;6154232;23;20017;-80
2022/06/20 02:22:01;;;;;;;7.33;1.60;;;13.40;99.90;;;;;;6151764;23;20009;-79
2022/06/20 02:24:33;;;;;;;7.20;1.65;;;13.40;99.90;;;;;;6153007;23;20323;-80
2022/06/20 02:27:02;;;;;;;6.65;1.85;;;13.40;99.90;;;;;;6151674;23;20035;-79
2022/06/20 02:29:31;;;;;;;5.65;1.48;;;13.40;99.90;;;;;;6153186;23;20029;-80
2022/06/20 02:32:06;;;;;;;5.22;1.10;;;13.40;99.90;;;;;;6152390;23;20056;-80
2022/06/20 02:34:32;;;;;;;6.85;1.65;;;13.40;99.90;;;;;;6179036;23;20079;-80
2022/06/20 02:37:03;;;;;;;4.63;1.65;;;13.40;99.90;;;;;;6152186;23;20061;-80
2022/06/20 02:39:30;;;;;;;5.03;1.50;;;13.40;99.90;;;;;;6178299;23;20084;-80
2022/06/20 02:42:21;;;;;;;6.60;2.08;;;13.60;99.90;;;;;;6153067;23;20508;-80
2022/06/20 02:44:49;;;;;;;12.05;1.98;;;13.50;99.90;;;;;;6153643;23;20104;-80
2022/06/20 02:47:19;;;;;;;5.25;1.25;;;13.40;99.90;;;;;;6152587;23;20433;-79
2022/06/20 02:49:46;;;;;;;7.83;1.90;;;13.40;99.90;;;;;;6180576;23;20151;-80
2022/06/20 02:52:19;;;;;;;8.35;2.00;;;13.50;99.90;;;;;;6151650;23;20719;-80
2022/06/20 02:54:46;;;;;;;5.63;1.35;;;13.40;99.90;;;;;;6153101;23;20017;-80
2022/06/20 02:57:22;;;;;;;6.40;1.60;;;13.50;99.90;;;;;;6178471;23;20028;-80
2022/06/20 02:59:54;;;;;;;7.85;1.38;;;13.40;99.90;;;;;;6152952;23;20143;-80
2022/06/20 03:02:26;;;;;;;9.07;1.42;;;13.40;99.90;;;;;;6178933;23;20048;-80
2022/06/20 03:04:53;;;;;;;8.82;1.85;;;13.30;99.90;;;;;;6179456;23;20013;-82
2022/06/20 03:07:27;;;;;;;6.88;1.98;;;13.30;99.90;;;;;;6151064;23;20009;-80
2022/06/20 03:10:02;;;;;;;6.40;1.70;;;13.30;99.90;;;;;;6154569;23;20013;-80
2022/06/20 03:12:27;;;;;;;9.85;2.05;;;13.30;99.90;;;;;;6178335;23;20013;-80
2022/06/20 03:14:57;;;;;;;10.20;1.80;;;13.20;99.90;;;;;;6178953;23;20014;-79
2022/06/20 03:17:29;;;;;;;11.15;1.52;;;13.30;99.90;;;;;;6179804;23;20370;-80
2022/06/20 03:19:57;;;;;;;5.95;2.20;;;13.20;99.90;;;;;;6180518;23;20021;-79
2022/06/20 03:22:31;;;;;;;4.20;1.83;;;13.30;99.90;;;;;;6151323;23;20096;-80
2022/06/20 03:24:57;;;;;;;5.70;1.60;;;13.20;99.90;;;;;;6180685;23;20613;-80
2022/06/20 03:27:35;;;;;;;5.25;1.50;;;13.10;99.90;;;;;;6153158;23;20028;-82
2022/06/20 03:30:30;;;;;;;7.85;1.48;;;13.40;99.90;;;;;;6152925;23;20152;-80
2022/06/20 03:32:58;;;;;;;9.18;2.08;;;13.10;99.90;;;;;;6179135;23;20144;-79
2022/06/20 03:35:26;;;;;;;6.03;1.52;;;13.00;99.90;;;;;;6152898;23;20013;-80
2022/06/20 03:37:52;;;;;;;9.90;2.00;;;12.90;99.90;;;;;;6177419;23;20508;-80
2022/06/20 03:40:18;;;;;;;6.20;2.30;;;12.90;99.90;;;;;;6153821;23;20017;-80
2022/06/20 03:42:44;;;;;;;7.72;1.60;;;12.90;99.90;;;;;;6153024;23;20021;-79
2022/06/20 03:45:11;;;;;;;7.45;1.42;;;12.90;99.90;;;;;;6155711;23;20017;-79
2022/06/20 03:48:04;;;;;;;4.90;1.73;;;12.90;99.90;;;;;;6152703;23;20109;-79
2022/06/20 03:50:35;;;;;;;5.47;2.22;;;12.90;99.90;;;;;;6132666;23;20091;-80
2022/06/20 03:53:36;;;;;;;10.68;1.90;;;13.00;99.90;;;;;;6177126;23;20025;-80
2022/06/20 03:56:11;;;;;;;6.83;2.17;;;13.00;99.90;;;;;;6163086;23;20048;-79
2022/06/20 03:59:21;;;;;;;5.53;2.08;;;13.00;99.90;;;;;;6169435;23;20021;-80
2022/06/20 04:01:57;;;;;;;6.47;1.83;;;13.10;99.90;;;;;;6019653;23;20606;-79
2022/06/20 04:04:29;;;;;;;6.60;1.83;;;13.20;99.90;;;;;;6142843;23;20502;-79
2022/06/20 04:07:02;;;;;;;8.32;2.38;;;13.20;99.90;;;;;;6177725;23;20021;-80
2022/06/20 04:12:35;;;;;;;6.40;1.98;;;13.20;99.90;;;;;;6178915;23;20097;-80
2022/06/20 04:15:18;;;;;;;12.33;2.53;;;13.30;99.90;;;;;;6153935;23;20048;-80
2022/06/20 04:20:55;;;;;;;9.88;2.33;;;13.30;99.90;;;;;;6152672;23;20017;-80
2022/06/20 04:23:47;;;;;;;11.57;2.70;;;13.40;99.90;;;;;;6176648;23;20026;-80
2022/06/20 04:26:22;;;;;;;13.73;2.63;;;13.40;99.90;;;;;;6178467;23;20071;-80
2022/06/20 04:29:07;;;;;;;8.52;2.15;;;13.40;99.90;;;;;;6151573;23;20013;-80
2022/06/20 04:32:12;;;;;;;10.98;3.38;;;13.50;99.90;;;;;;6177469;23;20121;-80
2022/06/20 04:34:41;;;;;;;8.45;2.28;;;13.40;99.90;;;;;;6177891;23;20052;-82
2022/06/20 04:37:16;;;;;;;7.65;2.60;;;13.40;99.90;;;;;;6151151;23;20048;-80
2022/06/20 04:39:54;;;;;;;8.55;2.53;;;13.60;99.90;;;;;;6150941;23;20357;-79
2022/06/20 04:42:48;;;;;;;12.05;3.00;;;13.60;99.90;;;;;;6152071;23;20052;-79
2022/06/20 04:45:19;;;;;;;8.77;2.75;;;13.50;99.90;;;;;;6084182;23;20017;-80
2022/06/20 04:47:44;;;;;;;;;;;13.50;99.90;;;;;;6154127;23;20024;-79
2022/06/20 04:50:20;;;;;;;9.70;2.38;;;13.40;99.90;;;;;;6181200;23;19916;-80
2022/06/20 04:52:52;;;;;;;10.65;2.97;;;13.60;99.90;;;;;;6178149;23;20021;-82
2022/06/20 04:55:22;;;;;;;12.20;3.40;;;13.60;99.90;;;;;;6153647;23;20592;-80
2022/06/20 04:57:50;;;;;;;10.83;3.13;;;13.60;99.90;;;;;;6153540;23;20083;-80
2022/06/20 05:00:19;;;;;;;9.18;2.92;;;13.60;99.90;;;;;;6153558;23;20357;-80
2022/06/20 05:02:48;;;;;;;9.38;2.45;;;13.60;99.90;;;;;;6180498;23;20025;-80
2022/06/20 05:05:20;;;;;;;9.88;2.88;;;13.70;99.90;;;;;;6154114;23;20028;-80
2022/06/20 05:07:48;;;;;;;10.65;2.70;;;13.60;99.90;;;;;;6179075;23;20021;-80
2022/06/20 05:10:29;;;;;;;9.40;2.53;;;13.60;99.90;;;;;;6181183;23;20021;-80
2022/06/20 05:13:21;;;;;;;12.20;3.10;;;13.70;99.90;;;;;;6179646;23;20026;-80
2022/06/20 05:15:49;;;;;;;11.77;3.53;;;13.70;99.90;;;;;;6151805;23;20481;-81
2022/06/20 05:18:27;;;;;;;9.75;3.42;;;13.70;99.90;;;;;;6180477;23;20055;-80
2022/06/20 05:20:57;;;;;;;13.52;3.58;;;13.80;99.90;;;;;;6152505;23;20063;-80
2022/06/20 05:23:45;;;;;;;9.57;3.10;;;13.80;99.90;;;;;;6152668;23;20149;-80
2022/06/20 05:26:22;;;;;;;14.52;3.40;;;13.90;99.90;;;;;;6153159;23;20013;-80
2022/06/20 05:28:56;;;;;;;12.32;2.60;;;13.90;99.90;;;;;;6152522;23;20448;-79
2022/06/20 05:31:38;;;;;;;9.05;3.17;;;13.90;99.90;;;;;;6127871;23;20426;-80
2022/06/20 05:34:12;;;;;;;15.75;4.22;;;14.00;99.90;;;;;;6154165;23;20116;-78
2022/06/20 05:36:43;;;;;;;12.68;3.63;;;14.00;99.90;;;;;;6150113;23;20025;-81
2022/06/20 05:39:19;;;;;;;14.93;3.65;;;14.00;99.90;;;;;;6180092;23;20020;-80
2022/06/20 05:41:45;;;;;;;13.75;3.10;;;14.10;99.90;;;;;;6152431;23;20057;-80
2022/06/20 05:44:12;;;;;;;12.52;3.55;;;14.10;99.90;;;;;;6180360;23;20461;-80
2022/06/20 05:47:15;;;;;;;13.57;3.83;;;14.30;99.90;;;;;;6153346;23;20013;-80
2022/06/20 05:49:46;;;;;;;13.43;3.92;;;14.40;99.90;;;;;;6055057;23;20531;-80
2022/06/20 05:52:19;;;;;;;13.77;3.58;;;14.40;99.90;;;;;;6151652;23;20562;-80
2022/06/20 05:54:56;;;;;;;12.63;3.80;;;14.40;99.90;;;;;;6180277;23;20021;-82
2022/06/20 05:57:25;;;;;;;11.63;3.42;;;14.50;99.90;;;;;;6150108;23;20031;-83
2022/06/20 06:00:25;;;;;;;6.43;2.90;;;14.50;99.90;;;;;;6153402;23;20317;-84
2022/06/20 06:03:03;;;;;;;11.70;3.20;;;14.60;99.90;;;;;;6177344;23;20064;-72
2022/06/20 06:05:36;;;;;;;14.93;3.30;;;14.60;99.90;;;;;;6154238;23;20036;-72
2022/06/20 06:08:28;;;;;;;13.25;3.35;;;14.70;99.90;;;;;;6151544;23;20032;-72
2022/06/20 06:11:16;;;;;;;13.82;3.30;;;14.70;99.90;;;;;;6179225;23;20021;-72
2022/06/20 06:13:54;;;;;;;9.68;2.95;;;14.70;99.90;;;;;;6180547;23;20084;-72
2022/06/20 06:16:48;;;;;;;16.47;2.73;;;14.80;99.90;;;;;;6179643;23;20112;-72
2022/06/20 06:19:21;;;;;;;11.07;3.50;;;15.00;99.90;;;;;;6180151;23;20044;-72
2022/06/20 06:21:48;;;;;;;9.65;3.25;;;14.90;99.90;;;;;;6177736;23;20275;-72
2022/06/20 06:24:19;;;;;;;8.98;2.85;;;15.00;99.90;;;;;;6178599;23;20802;-72
2022/06/20 06:26:47;;;;;;;9.00;3.05;;;15.00;99.90;;;;;;6151585;23;20076;-73
2022/06/20 06:29:23;;;;;;;10.25;2.92;;;15.10;99.90;;;;;;6178590;23;20152;-73
2022/06/20 06:31:54;;;;;;;15.20;2.70;;;15.10;99.90;;;;;;6152950;23;20029;-72
2022/06/20 06:34:43;;;;;;;10.87;3.13;;;15.20;99.90;;;;;;6153737;23;20021;-73
2022/06/20 06:37:24;;;;;;;15.38;3.47;;;15.30;99.90;;;;;;6078111;23;21001;-72
2022/06/20 06:39:57;;;;;;;10.07;3.05;;;15.20;99.90;;;;;;6151219;23;20039;-73
2022/06/20 06:42:23;;;;;;;13.02;2.83;;;15.40;99.90;;;;;;6152341;23;20017;-74
2022/06/20 06:44:51;;;;;;;12.10;2.78;;;15.40;99.90;;;;;;6179191;23;20071;-73
2022/06/20 06:47:25;;;;;;;13.53;2.93;;;15.40;99.90;;;;;;6179351;23;20723;-73
2022/06/20 06:49:55;;;;;;;17.90;3.28;;;15.50;99.90;;;;;;6151882;23;20049;-73
2022/06/20 06:52:25;;;;;;;16.13;2.83;;;15.60;99.90;;;;;;6177483;23;20395;-73
2022/06/20 06:54:59;;;;;;;16.42;3.83;;;15.60;99.90;;;;;;6179412;23;20019;-72
2022/06/20 06:57:38;;;;;;;16.40;3.35;;;15.70;99.90;;;;;;6178920;23;20084;-73
2022/06/20 07:00:07;;;;;;;12.85;2.72;;;15.80;99.90;;;;;;6152415;23;20020;-74
2022/06/20 07:02:38;;;;;;;15.27;2.58;;;15.90;99.90;;;;;;6151469;23;20092;-74
2022/06/20 07:05:30;;;;;;;14.05;3.53;;;15.90;99.90;;;;;;6153175;23;20014;-73
2022/06/20 07:08:23;;;;;;;12.82;3.92;;;15.90;99.90;;;;;;6151065;23;20056;-73
2022/06/20 07:11:14;;;;;;;12.90;3.38;;;15.90;99.90;;;;;;6179655;23;20069;-73
2022/06/20 07:13:47;;;;;;;14.27;3.22;;;15.90;99.90;;;;;;6150744;23;20100;-72
2022/06/20 07:16:27;;;;;;;9.40;2.30;;;15.80;99.90;;;;;;6180111;23;20021;-72
2022/06/20 07:18:55;;;;;;;11.10;3.17;;;15.70;99.90;;;;;;6179949;23;20163;-72
2022/06/20 07:21:23;;;;;;;10.10;3.05;;;15.80;99.90;;;;;;6152262;23;20346;-72
2022/06/20 07:23:57;;;;;;;13.13;2.95;;;15.90;99.90;;;;;;6177388;23;20025;-74
2022/06/20 07:26:25;;;;;;;8.68;2.30;;;16.00;99.90;;;;;;6177653;23;20013;-73
2022/06/20 07:29:06;;;;;;;11.85;2.58;;;16.00;99.90;;;;;;6177731;23;20042;-73
2022/06/20 07:31:43;;;;;;;11.10;2.63;;;16.00;99.90;;;;;;6151901;23;20020;-73
2022/06/20 07:34:16;;;;;;;11.07;2.95;;;15.90;99.90;;;;;;6150255;23;20031;-73
2022/06/20 07:36:57;;;;;;;9.75;2.67;;;15.90;99.90;;;;;;6172754;23;20084;-74
2022/06/20 07:39:44;;;;;;;17.67;2.65;;;15.90;99.90;;;;;;6174514;23;20021;-73
2022/06/20 07:42:26;;;;;;;7.55;2.20;;;15.90;99.90;;;;;;6149514;23;20024;-73
2022/06/20 07:45:04;;;;;;;10.73;2.45;;;15.90;99.90;;;;;;6153527;23;20020;-74
2022/06/20 07:47:35;;;;;;;9.75;2.03;;;15.90;99.90;;;;;;6177787;23;20025;-73
2022/06/20 07:50:10;;;;;;;9.30;2.17;;;16.00;99.90;;;;;;6151380;23;20530;-74
2022/06/20 07:52:44;;;;;;;13.70;2.28;;;16.00;99.90;;;;;;6174350;23;20091;-74
2022/06/20 07:55:19;;;;;;;10.73;2.40;;;16.00;99.90;;;;;;6153260;23;20027;-73
2022/06/20 07:57:49;;;;;;;8.45;2.10;;;16.00;99.90;;;;;;6179065;23;20028;-73
2022/06/20 08:00:23;;;;;;;9.25;2.30;;;15.90;99.90;;;;;;6152312;23;20418;-74
2022/06/20 08:03:00;;;;;;;8.27;2.20;;;15.90;99.90;;;;;;6174124;23;20129;-73
2022/06/20 08:05:34;;;;;;;6.15;1.95;;;16.00;99.90;;;;;;6153621;23;20033;-74
2022/06/20 08:08:09;;;;;;;7.10;1.67;;;16.00;99.90;;;;;;6175164;23;20136;-74
2022/06/20 08:10:42;;;;;;;8.57;1.95;;;16.10;99.90;;;;;;6151451;23;20088;-74
2022/06/20 08:13:24;;;;;;;6.00;1.60;;;16.10;99.90;;;;;;6150992;23;20116;-75
2022/06/20 08:16:14;;;;;;;9.05;1.85;;;16.30;99.90;;;;;;6151009;23;20017;-74
2022/06/20 08:18:41;;;;;;;11.73;1.70;;;16.30;99.90;;;;;;6147533;23;20108;-74
2022/06/20 08:21:16;;;;;;;10.95;2.22;;;16.40;99.90;;;;;;6151175;23;20024;-74
2022/06/20 08:24:15;;;;;;;8.20;1.85;;;16.50;99.90;;;;;;6176797;23;20039;-74
2022/06/20 08:26:50;;;;;;;5.50;1.90;;;16.60;99.90;;;;;;6153567;23;20020;-74
2022/06/20 08:29:26;;;;;;;6.75;1.80;;;16.60;99.90;;;;;;6180364;23;20370;-74
2022/06/20 08:31:54;;;;;;;7.82;2.05;;;16.60;99.90;;;;;;6178742;23;20048;-74
2022/06/20 08:34:31;;;;;;;9.00;2.20;;;16.60;99.90;;;;;;6152966;23;20020;-78
2022/06/20 08:37:11;;;;;;;6.57;1.73;;;16.60;99.90;;;;;;6151380;23;20020;-74
2022/06/20 08:39:47;;;;;;;6.77;1.57;;;16.70;99.90;;;;;;6180282;23;20021;-73
2022/06/20 08:42:45;;;;;;;4.18;1.88;;;16.70;99.90;;;;;;6178682;23;20370;-74
2022/06/20 08:46:08;;;;;;;13.07;2.28;;;16.80;99.90;;;;;;6153552;23;20445;-73
2022/06/20 08:49:01;;;;;;;9.68;2.55;;;16.80;99.90;;;;;;6119038;23;20123;-73
2022/06/20 08:52:09;;;;;;;8.07;1.90;;;16.90;99.90;;;;;;6176235;23;20323;-74
2022/06/20 08:55:07;;;;;;;8.85;1.60;;;17.00;99.90;;;;;;6150538;23;20091;-74
2022/06/20 08:57:57;;;;;;;7.72;1.67;;;16.90;99.90;;;;;;6180533;23;20076;-74
2022/06/20 09:00:41;;;;;;;6.00;1.65;;;16.90;99.90;;;;;;6178933;23;20027;-75
2022/06/20 09:03:46;;;;;;;6.28;1.55;;;16.80;99.90;;;;;;6152094;23;20108;-75
2022/06/20 09:06:30;;;;;;;6.70;1.27;;;16.80;99.90;;;;;;6153879;23;20119;-74
2022/06/20 09:09:18;;;;;;;6.30;1.58;;;16.80;99.90;;;;;;6151673;23;20020;-74
2022/06/20 09:12:10;;;;;;;14.57;1.77;;;17.00;99.90;;;;;;6152979;23;20056;-74
2022/06/20 09:14:58;;;;;;;8.23;1.50;;;17.00;99.90;;;;;;6153180;23;20071;-75
2022/06/20 09:17:35;;;;;;;4.10;1.10;;;17.10;99.90;;;;;;6181104;23;20020;-74
2022/06/20 09:20:32;;;;;;;7.18;1.77;;;17.10;99.90;;;;;;6180421;23;20017;-75
2022/06/20 09:23:06;;;;;;;2.45;1.15;;;17.10;99.90;;;;;;6177218;23;20017;-76
2022/06/20 09:25:47;;;;;;;4.70;1.50;;;17.20;99.90;;;;;;6154564;23;20023;-75
2022/06/20 09:28:40;;;;;;;7.05;1.50;;;17.20;99.90;;;;;;6153209;23;20018;-74
2022/06/20 09:31:43;;;;;;;6.60;2.00;;;17.30;99.90;;;;;;6151926;23;20029;-74
2022/06/20 09:34:37;;;;;;;3.92;1.30;;;17.30;99.90;;;;;;6179254;23;20021;-74
2022/06/20 09:37:15;;;;;;;4.32;1.42;;;17.30;99.90;;;;;;6154700;23;20521;-74
2022/06/20 09:40:23;;;;;;;6.63;1.45;;;17.30;99.90;;;;;;6181680;23;20017;-73
2022/06/20 09:42:58;;;;;;;4.32;1.48;;;17.40;99.90;;;;;;6151523;23;20025;-74
2022/06/20 09:45:44;;;;;;;7.25;1.67;;;17.40;99.90;;;;;;6180959;23;20350;-74
2022/06/20 09:48:26;;;;;;;4.70;1.35;;;17.50;99.90;;;;;;6152686;23;20043;-74
2022/06/20 09:51:01;;;;;;;3.55;1.63;;;17.50;99.90;;;;;;6180850;23;20021;-75
2022/06/20 09:53:51;;;;;;;6.13;1.65;;;17.50;99.90;;;;;;6179199;23;20021;-75
2022/06/20 09:56:36;;;;;;;6.75;1.42;;;17.50;99.90;;;;;;6152390;23;20048;-74
2022/06/20 09:59:05;;;;;;;6.63;1.55;;;17.60;99.90;;;;;;6179620;23;20115;-74
2022/06/20 10:01:58;;;;;;;4.28;1.02;;;17.70;99.90;;;;;;6180695;23;20028;-74
2022/06/20 10:04:56;;;;;;;7.93;1.42;;;17.70;99.50;;;;;;6134767;23;20047;-74
2022/06/20 10:07:30;;;;;;;9.52;1.60;;;17.70;99.20;;;;;;6152096;23;20021;-72
2022/06/20 10:10:17;;;;;;;4.68;1.40;;;17.70;99.20;;;;;;6151932;23;20017;-74
2022/06/20 10:12:57;;;;;;;7.22;1.75;;;17.80;99.00;;;;;;6152260;23;20056;-73
2022/06/20 10:15:39;;;;;;;5.95;1.75;;;17.80;99.20;;;;;;6151276;23;20103;-73
2022/06/20 10:18:20;;;;;;;8.32;1.60;;;17.80;98.90;;;;;;6178491;23;20039;-73
2022/06/20 10:20:54;;;;;;;10.15;1.80;;;17.70;99.00;;;;;;6153831;23;20049;-73
2022/06/20 10:23:53;;;;;;;3.63;1.05;;;17.80;99.00;;;;;;6150599;23;20024;-74
2022/06/20 10:26:40;;;;;;;6.82;1.95;;;17.80;99.00;;;;;;6152896;23;20100;-74
2022/06/20 10:29:25;;;;;;;7.40;1.80;;;17.80;98.90;;;;;;6152912;23;20089;-74
2022/06/20 10:32:16;;;;;;;7.50;1.80;;;17.80;98.70;;;;;;6152825;23;20379;-75
2022/06/20 10:35:00;;;;;;;5.80;1.30;;;17.80;98.60;;;;;;6177910;23;20020;-77
2022/06/20 10:37:40;;;;;;;6.97;1.77;;;17.80;98.60;;;;;;6176076;23;20084;-75
2022/06/20 10:40:37;;;;;;;6.13;1.98;;;17.90;98.70;;;;;;6153954;23;20027;-74
2022/06/20 10:43:21;;;;;;;8.23;2.05;;;18.00;98.90;;;;;;6175427;23;20068;-75
2022/06/20 10:45:56;;;;;;;7.22;1.52;;;18.00;98.50;;;;;;6179059;23;20126;-74
2022/06/20 10:49:02;;;;;;;7.22;1.30;;;18.00;98.30;;;;;;6179827;23;20047;-75
2022/06/20 10:51:56;;;;;;;10.55;1.67;;;18.00;98.00;;;;;;6094644;23;20755;-74
2022/06/20 10:54:28;;;;;;;12.27;1.85;;;18.10;98.10;;;;;;6174063;23;20017;-74
2022/06/20 10:57:02;;;;;;;5.97;1.30;;;18.20;97.90;;;;;;6180759;23;20322;-74
2022/06/20 10:59:46;;;;;;;8.45;1.55;;;18.20;97.60;;;;;;6177660;23;20107;-75
2022/06/20 11:02:45;;;;;;;5.40;1.30;;;18.30;97.30;;;;;;6153142;23;20091;-74
2022/06/20 11:05:48;;;;;;;3.42;1.42;;;18.40;97.10;;;;;;6152316;23;20370;-73
2022/06/20 11:08:47;;;;;;;4.30;1.30;;;18.40;96.60;;;;;;6151425;23;20021;-74
2022/06/20 11:11:21;;;;;;;5.15;1.17;;;18.40;96.80;;;;;;6180528;23;20032;-73
2022/06/20 11:14:24;;;;;;;6.68;1.48;;;18.50;96.70;;;;;;6150800;23;20437;-73
2022/06/20 11:16:56;;;;;;;2.58;1.00;;;18.60;96.20;;;;;;6152318;23;20116;-74
2022/06/20 11:19:30;;;;;;;3.58;1.30;;;18.60;95.50;;;;;;6180013;23;20045;-74
2022/06/20 11:22:26;;;;;;;5.57;1.88;;;18.70;95.40;;;;;;6151151;23;20021;-74
2022/06/20 11:25:13;;;;;;;6.75;1.50;;;18.70;95.50;;;;;;6154050;23;20450;-74
2022/06/20 11:28:00;;;;;;;6.13;1.50;;;18.80;95.50;;;;;;6151972;23;20021;-74
2022/06/20 11:30:54;;;;;;;9.15;1.58;;;18.70;95.40;;;;;;6153254;23;20552;-74
2022/06/20 11:34:00;;;;;;;8.43;1.75;;;18.60;95.30;;;;;;6152294;23;20439;-73
2022/06/20 11:36:13;;;;;;;5.35;1.67;;;18.60;95.40;;;;;;6152926;23;20052;-73
2022/06/20 11:38:50;;;;;;;6.55;1.70;;;18.70;95.60;;;;;;6151542;23;20060;-74
2022/06/20 11:41:22;;;;;;;6.18;1.58;;;18.80;95.90;;;;;;6152822;23;20127;-74
2022/06/20 11:44:19;;;;;;;5.10;1.63;;;19.00;95.90;;;;;;6150468;23;20195;-74
2022/06/20 11:46:53;;;;;;;8.52;1.52;;;19.00;95.10;;;;;;6179638;23;20026;-73
2022/06/20 11:49:27;;;;;;;;;;;19.00;95.40;;;;;;6177794;23;20032;-74
2022/06/20 11:52:06;;;;;;;5.05;1.60;;;19.00;95.30;;;;;;6177300;23;19920;-75
2022/06/20 11:54:32;;;;;;;10.35;1.75;;;19.00;95.50;;;;;;6178915;23;20040;-73
2022/06/20 11:57:25;;;;;;;10.48;1.80;;;18.90;95.40;;;;;;6181818;23;20021;-74
2022/06/20 12:00:12;;;;;;;7.68;2.05;;;18.90;95.40;;;;;;6181862;23;20017;-73
2022/06/20 12:02:53;;;;;;;9.00;1.98;;;18.80;95.80;;;;;;6153370;23;20017;-74
2022/06/20 12:05:18;;;;;;;10.43;2.75;;;18.70;96.30;;;;;;6154658;23;20021;-74
2022/06/20 12:08:15;;;;;;;7.60;2.03;;;18.60;96.70;;;;;;6178799;23;20025;-73
2022/06/20 12:10:52;;;;;;;6.65;1.60;;;18.60;97.00;;;;;;6123247;23;20073;-74
2022/06/20 12:13:30;;;;;;;6.80;1.38;;;18.70;96.70;;;;;;6153864;23;20100;-74
2022/06/20 12:15:55;;;;;;;9.15;1.73;;;18.70;95.60;;;;;;6180872;23;20350;-75
2022/06/20 12:18:41;;;;;;;7.53;1.77;;;18.60;95.00;;;;;;6180410;23;20044;-73
2022/06/20 12:24:07;;;;;;;11.25;1.48;;;18.60;95.40;;;;;;6179728;23;20021;-74
2022/06/20 12:26:39;;;;;;;4.38;1.27;;;18.70;94.90;;;;;;6181579;23;20024;-75
2022/06/20 12:29:18;;;;;;;6.95;1.45;;;18.80;94.40;;;;;;6154583;23;20031;-74
2022/06/20 12:31:48;;;;;;;5.15;1.55;;;18.90;94.50;;;;;;6154067;23;20025;-74
2022/06/20 12:34:16;;;;;;;7.15;1.50;;;18.90;94.70;;;;;;6154221;23;20020;-74
2022/06/20 12:37:07;;;;;;;4.97;1.33;;;19.00;94.70;;;;;;6152277;23;20052;-75
2022/06/20 12:39:39;;;;;;;7.72;2.17;;;18.90;94.30;;;;;;6181784;23;20149;-75
2022/06/20 12:42:07;;;;;;;9.93;1.90;;;18.80;94.40;;;;;;6154163;23;20021;-74
2022/06/20 12:44:55;;;;;;;5.15;1.80;;;18.80;94.60;;;;;;6180376;23;20056;-74
2022/06/20 12:48:17;;;;;;;7.78;1.85;;;18.70;95.30;;;;;;6154968;23;20021;-74
2022/06/20 12:50:54;;;;;;;9.25;2.10;;;18.60;95.50;;;;;;6036259;23;20026;-74
2022/06/20 12:53:58;;;;;;;8.98;2.10;;;18.50;96.00;;;;;;6058031;23;20337;-74
2022/06/20 12:56:43;;;;;;;7.40;2.00;;;18.50;96.60;;;;;;6172266;23;20120;-75
2022/06/20 12:59:45;;;;;;;10.60;2.10;;;18.40;96.50;;;;;;6153620;23;20072;-74
2022/06/20 13:02:32;;;;;;;5.18;2.00;;;18.30;96.50;;;;;;6154443;23;20021;-74
2022/06/20 13:05:28;;;;;;;6.43;1.80;;;18.10;96.90;;;;;;6180324;23;20442;-74
2022/06/20 13:08:35;;;;;;;5.53;1.90;;;18.00;97.30;;;;;;6179483;23;20028;-74
2022/06/20 13:11:36;;;;;;;4.93;1.58;;;18.10;97.60;;;;;;6181261;23;20048;-74
2022/06/20 13:14:35;;;;;;;7.07;2.15;;;18.20;97.90;;;;;;6179900;23;20147;-74
2022/06/20 13:17:24;;;;;;;4.45;1.35;;;18.50;97.70;;;;;;6180058;23;20013;-74
2022/06/20 13:20:21;;;;;;;5.75;1.88;;;18.70;97.70;;;;;;6180706;23;20330;-74
2022/06/20 13:23:04;;;;;;;7.15;1.77;;;18.70;97.20;;;;;;6152873;23;20025;-73
2022/06/20 13:25:46;;;;;;;6.97;1.73;;;18.80;97.20;;;;;;6180713;23;20044;-74
2022/06/20 13:28:12;;;;;;;7.07;2.15;;;18.90;97.10;;;;;;6153356;23;20088;-74
2022/06/20 13:31:21;;;;;;;11.90;1.98;;;19.00;96.80;;;;;;6181609;23;20107;-75
2022/06/20 13:34:01;;;;;;;9.48;1.75;;;19.10;96.30;;;;;;6177896;23;20041;-75
2022/06/20 13:36:40;;;;;;;8.98;2.17;;;19.00;96.20;;;;;;6154395;23;20013;-74
2022/06/20 13:39:11;;;;;;;6.20;1.77;;;18.90;96.10;;;;;;6178474;23;20053;-74
2022/06/20 13:41:49;;;;;;;5.65;1.80;;;18.70;96.20;;;;;;6150994;23;20017;-74
2022/06/20 13:44:29;;;;;;;6.85;1.92;;;18.70;96.00;;;;;;6178543;23;20538;-74
2022/06/20 13:47:01;;;;;;;8.60;1.90;;;18.70;95.60;;;;;;6153269;23;20692;-75
2022/06/20 13:49:57;;;;;;;8.95;2.13;;;18.60;95.80;;;;;;6153867;23;20071;-74
2022/06/20 13:52:57;;;;;;;7.10;2.25;;;18.60;96.20;;;;;;6178365;23;20031;-73
2022/06/20 13:55:48;;;;;;;14.02;1.92;;;18.40;96.20;;;;;;6054494;23;20106;-74
2022/06/20 13:58:32;;;;;;;6.35;2.05;;;18.30;96.30;;;;;;6152456;23;20076;-74
2022/06/20 14:01:10;;;;;;;5.63;1.75;;;18.20;96.40;;;;;;6153616;23;20056;-74